Ncc Rabigh — HZQA — position and weather

sailwx.info

Track history (hours):
 
Tides and Currents Weather Stations Pressure Air Temp Water Temp Dewpoint Dewpoint Depression Visibility Wind Speed Wind Dir Waves Ship Positions

Ncc Rabigh

Last reported at 2017-Aug-09 10:59 UTC. Time now 2017-Sep-23 11:20 UTC.
Position N 01°19' E 103°20'.
Warning: this ship's position is 45 days out of date.

Length 183 m; draft 10 m.

Type: Ship (hazmat cat B). MMSI: 403575000.

Date/timePositionNaut miles runAvg speedWind from/ knotsBaromVisibWave heightAir tempDewpointWater temp
2017-Aug-09 10:59N 01°19' E 103°20'715.7
2017-Aug-09 10:30N 01°15' E 103°26'815.5
2017-Aug-09 10:01N 01°12' E 103°33'815.2
2017-Aug-09 09:30N 01°10' E 103°40'713.2
2017-Aug-09 09:00N 01°10' E 103°47'714.6
2017-Aug-09 08:30N 01°13' E 103°54'713.5
2017-Aug-09 08:00N 01°15' E 104°00'4 0.1
2017-Aug-07 12:45N 01°15' E 104°05'311.8
2017-Aug-07 12:29N 01°15' E 104°01'611.7
2017-Aug-07 12:00N 01°14' E 103°56'611.8
2017-Aug-07 11:30N 01°11' E 103°51'611.3
2017-Aug-07 10:59N 01°08' E 103°46'612.2
2017-Aug-07 10:30N 01°04' E 103°41'510.1
2017-Aug-07 10:01N 01°04' E 103°36'510.2
2017-Aug-07 09:30N 01°09' E 103°34'712.8
2017-Aug-07 08:59N 01°12' E 103°40'2 3.7
2017-Aug-07 08:30N 01°12' E 103°41'0 0.2
2017-Aug-07 07:59N 01°12' E 103°41'0 0.1
2017-Aug-07 07:29N 01°12' E 103°41'0 0.1
2017-Aug-07 06:56N 01°12' E 103°41'0 0.0
2017-Aug-07 06:29N 01°12' E 103°41'0 0.0
2017-Aug-07 05:59N 01°12' E 103°41'0 0.1
2017-Aug-07 05:26N 01°12' E 103°42'0 0.0
2017-Aug-07 04:59N 01°12' E 103°42'0 0.0
2017-Aug-07 04:29N 01°12' E 103°42'0 0.1
2017-Aug-07 03:56N 01°12' E 103°41'0 0.1
2017-Aug-07 03:26N 01°12' E 103°42'0 0.1
2017-Aug-07 02:56N 01°12' E 103°42'0 0.1
2017-Aug-07 02:29N 01°12' E 103°42'0 0.0
2017-Aug-07 01:56N 01°12' E 103°42'0 0.1
2017-Aug-07 01:29N 01°12' E 103°42'0 0.2
2017-Aug-07 00:56N 01°13' E 103°42'0 0.0
2017-Aug-07 00:29N 01°13' E 103°42'0 0.1
2017-Aug-06 23:56N 01°13' E 103°42'0 0.0
2017-Aug-06 23:29N 01°13' E 103°42'0 0.0
2017-Aug-06 22:41N 01°13' E 103°42'0 0.0
2017-Aug-06 22:14N 01°13' E 103°42'0 0.0
2017-Aug-06 21:50N 01°13' E 103°42'0 0.0
2017-Aug-06 21:11N 01°13' E 103°42'0 0.1
2017-Aug-06 20:53N 01°13' E 103°42'0 0.0
2017-Aug-06 20:17N 01°13' E 103°42'0 0.0
2017-Aug-06 19:59N 01°13' E 103°42'0 0.0
2017-Aug-06 19:20N 01°13' E 103°42'0 0.0
2017-Aug-06 18:56N 01°13' E 103°42'0 0.0
2017-Aug-06 18:29N 01°13' E 103°42'0 0.0
2017-Aug-06 17:53N 01°13' E 103°42'0 0.0
2017-Aug-06 17:23N 01°13' E 103°42'0 0.0
2017-Aug-06 16:53N 01°13' E 103°42'0 0.0
2017-Aug-06 16:26N 01°12' E 103°42'1 2.4
2017-Aug-06 16:01N 01°12' E 103°41'1 2.3
2017-Aug-06 15:31N 01°11' E 103°40'2 3.6
2017-Aug-06 15:00N 01°10' E 103°42'3 5.9
2017-Aug-06 14:31N 01°09' E 103°44'3 6.1
2017-Aug-06 14:01N 01°10' E 103°47'3 6.6
2017-Aug-06 13:30N 01°11' E 103°50'5 8.9
2017-Aug-06 13:00N 01°13' E 103°54'510.2
2017-Aug-06 12:31N 01°15' E 103°59'  
Track history (hours):
 
Tides and Currents Weather Stations Pressure Air Temp Water Temp Dewpoint Dewpoint Depression Visibility Wind Speed Wind Dir Waves Ship Positions

Ncc Rabigh

Last reported at 2017-Aug-09 10:59 UTC. Time now 2017-Sep-23 11:20 UTC.
Position N 01°19' E 103°20'.
Warning: this ship's position is 45 days out of date.

Length 183 m; draft 10 m.

Type: Ship (hazmat cat B). MMSI: 403575000.

Date/timePositionNaut miles runAvg speedWind from/ knotsBaromVisibWave heightAir tempDewpointWater temp
2017-Aug-09 10:59N 01°19' E 103°20'715.7
2017-Aug-09 10:30N 01°15' E 103°26'815.5
2017-Aug-09 10:01N 01°12' E 103°33'815.2
2017-Aug-09 09:30N 01°10' E 103°40'713.2
2017-Aug-09 09:00N 01°10' E 103°47'714.6
2017-Aug-09 08:30N 01°13' E 103°54'713.5
2017-Aug-09 08:00N 01°15' E 104°00'4 0.1
2017-Aug-07 12:45N 01°15' E 104°05'311.8
2017-Aug-07 12:29N 01°15' E 104°01'611.7
2017-Aug-07 12:00N 01°14' E 103°56'611.8
2017-Aug-07 11:30N 01°11' E 103°51'611.3
2017-Aug-07 10:59N 01°08' E 103°46'612.2
2017-Aug-07 10:30N 01°04' E 103°41'510.1
2017-Aug-07 10:01N 01°04' E 103°36'510.2
2017-Aug-07 09:30N 01°09' E 103°34'712.8
2017-Aug-07 08:59N 01°12' E 103°40'2 3.7
2017-Aug-07 08:30N 01°12' E 103°41'0 0.2
2017-Aug-07 07:59N 01°12' E 103°41'0 0.1
2017-Aug-07 07:29N 01°12' E 103°41'0 0.1
2017-Aug-07 06:56N 01°12' E 103°41'0 0.0
2017-Aug-07 06:29N 01°12' E 103°41'0 0.0
2017-Aug-07 05:59N 01°12' E 103°41'0 0.1
2017-Aug-07 05:26N 01°12' E 103°42'0 0.0
2017-Aug-07 04:59N 01°12' E 103°42'0 0.0
2017-Aug-07 04:29N 01°12' E 103°42'0 0.1
2017-Aug-07 03:56N 01°12' E 103°41'0 0.1
2017-Aug-07 03:26N 01°12' E 103°42'0 0.1
2017-Aug-07 02:56N 01°12' E 103°42'0 0.1
2017-Aug-07 02:29N 01°12' E 103°42'0 0.0
2017-Aug-07 01:56N 01°12' E 103°42'0 0.1
2017-Aug-07 01:29N 01°12' E 103°42'0 0.2
2017-Aug-07 00:56N 01°13' E 103°42'0 0.0
2017-Aug-07 00:29N 01°13' E 103°42'0 0.1
2017-Aug-06 23:56N 01°13' E 103°42'0 0.0
2017-Aug-06 23:29N 01°13' E 103°42'0 0.0
2017-Aug-06 22:41N 01°13' E 103°42'0 0.0
2017-Aug-06 22:14N 01°13' E 103°42'0 0.0
2017-Aug-06 21:50N 01°13' E 103°42'0 0.0
2017-Aug-06 21:11N 01°13' E 103°42'0 0.1
2017-Aug-06 20:53N 01°13' E 103°42'0 0.0
2017-Aug-06 20:17N 01°13' E 103°42'0 0.0
2017-Aug-06 19:59N 01°13' E 103°42'0 0.0
2017-Aug-06 19:20N 01°13' E 103°42'0 0.0
2017-Aug-06 18:56N 01°13' E 103°42'0 0.0
2017-Aug-06 18:29N 01°13' E 103°42'0 0.0
2017-Aug-06 17:53N 01°13' E 103°42'0 0.0
2017-Aug-06 17:23N 01°13' E 103°42'0 0.0
2017-Aug-06 16:53N 01°13' E 103°42'0 0.0
2017-Aug-06 16:26N 01°12' E 103°42'1 2.4
2017-Aug-06 16:01N 01°12' E 103°41'1 2.3
2017-Aug-06 15:31N 01°11' E 103°40'2 3.6
2017-Aug-06 15:00N 01°10' E 103°42'3 5.9
2017-Aug-06 14:31N 01°09' E 103°44'3 6.1
2017-Aug-06 14:01N 01°10' E 103°47'3 6.6
2017-Aug-06 13:30N 01°11' E 103°50'5 8.9
2017-Aug-06 13:00N 01°13' E 103°54'510.2
2017-Aug-06 12:31N 01°15' E 103°59'  

Dump ship's entire track history